Time;durP1;ratioP1;P1;durP2;ratioP2;P2;SDS_P1;SDS_P2;PMS_P1;PMS_P2;Temp;Humidity;BMP_temperature;BMP_pressure;BME280_temperature;BME280_humidity;BME280_pressure;Samples;Min_cycle;Max_cycle;Signal;HPM_P1;HPM_P2
2023/01/08 00:00:42;;;;;;;3.30;2.63;;;;;;;7.82;100.00;100229.44;5043929;28;20034;-91
2023/01/08 00:03:37;;;;;;;5.90;2.27;;;;;;;7.63;100.00;100205.00;5019648;28;20287;-90
2023/01/08 00:06:14;;;;;;;6.18;2.80;;;;;;;7.88;100.00;100239.06;5049915;28;20400;-90
2023/01/08 00:15:01;;;;;;;3.58;2.28;;;;;;;7.73;100.00;100231.75;4953389;28;20121;-90
2023/01/08 00:20:43;;;;;;;6.30;2.70;;;;;;;7.91;100.00;100249.25;5065015;22;20319;-91
2023/01/08 00:23:34;;;;;;;7.05;2.20;;;;;;;7.94;100.00;100253.28;5071580;28;20037;-91
2023/01/08 00:26:51;;;;;;;4.20;2.47;;;;;;;7.76;100.00;100206.44;5055765;28;20021;-91
2023/01/08 00:29:32;;;;;;;5.97;2.63;;;;;;;7.96;100.00;100229.78;5074317;28;20036;-90
2023/01/08 00:32:14;;;;;;;6.05;2.30;;;;;;;7.83;100.00;100204.38;5061139;28;20123;-91
2023/01/08 00:37:53;;;;;;;4.73;2.20;;;;;;;8.06;100.00;100207.72;4950059;29;20401;-91
2023/01/08 00:44:11;;;;;;;7.82;2.40;;;;;;;8.07;100.00;100183.47;5012392;28;20059;-90
2023/01/08 00:46:37;;;;;;;5.95;2.40;;;;;;;8.28;100.00;100219.09;5036829;28;20025;-89
2023/01/08 00:49:03;;;;;;;5.27;2.30;;;;;;;8.14;100.00;100193.91;5066124;28;20036;-89
2023/01/08 00:51:57;;;;;;;8.23;2.20;;;;;;;8.22;100.00;100206.78;5058357;28;20032;-88
2023/01/08 00:54:22;;;;;;;4.95;2.55;;;;;;;8.01;100.00;100174.63;5053775;28;20086;-89
2023/01/08 01:07:07;;;;;;;9.00;2.78;;;;;;;8.08;100.00;100178.94;5208409;22;20037;-89
2023/01/08 01:09:32;;;;;;;4.30;2.50;;;;;;;8.16;100.00;100189.13;5032609;28;20480;-89
2023/01/08 01:12:00;;;;;;;7.47;2.30;;;;;;;7.93;100.00;100155.63;5011345;28;20320;-89
2023/01/08 01:14:40;;;;;;;6.25;2.90;;;;;;;8.18;100.00;100189.69;5025262;28;20045;-89
2023/01/08 01:17:05;;;;;;;8.97;2.60;;;;;;;8.24;100.00;100183.28;4976418;28;20037;-89
2023/01/08 01:19:34;;;;;;;8.13;2.53;;;;;;;8.26;100.00;100194.53;4994245;28;20023;-89
2023/01/08 01:22:03;;;;;;;5.97;2.38;;;;;;;8.17;100.00;100175.53;5027142;28;20029;-89
2023/01/08 01:24:56;;;;;;;5.07;2.60;;;;;;;8.12;100.00;100164.00;5031796;28;20091;-88
2023/01/08 01:27:25;;;;;;;6.18;2.30;;;;;;;8.06;100.00;100141.03;5008225;28;20030;-89
2023/01/08 01:29:58;;;;;;;5.00;2.15;;;;;;;8.07;100.00;100140.78;5014958;28;20030;-89
2023/01/08 01:32:36;;;;;;;5.82;2.63;;;;;;;8.09;100.00;100129.84;5031732;28;20022;-89
2023/01/08 01:35:27;;;;;;;4.30;2.20;;;;;;;8.36;100.00;100172.44;5000279;28;20038;-89
2023/01/08 01:38:26;;;;;;;9.63;2.33;;;;;;;8.13;100.00;100134.38;4997872;28;20041;-89
2023/01/08 01:40:52;;;;;;;5.43;2.83;;;;;;;8.22;100.00;100149.94;4984796;28;20429;-89
2023/01/08 01:44:07;;;;;;;6.85;2.58;;;;;;;8.45;100.00;100188.75;5015019;28;20156;-89
2023/01/08 01:46:43;;;;;;;4.93;2.40;;;;;;;8.36;100.00;100163.63;4975505;22;20510;-89
2023/01/08 01:49:27;;;;;;;8.37;2.50;;;;;;;8.31;100.00;100170.53;5031152;28;20314;-89
2023/01/08 01:51:55;;;;;;;6.00;2.25;;;;;;;8.38;100.00;100185.53;5049558;28;20025;-89
2023/01/08 01:54:22;;;;;;;7.75;2.45;;;;;;;8.43;100.00;100213.06;5048696;28;20290;-89
2023/01/08 01:56:48;;;;;;;7.95;2.80;;;;;;;8.31;100.00;100226.59;5037183;28;20018;-89
2023/01/08 01:59:14;;;;;;;4.28;1.90;;;;;;;8.12;100.00;100207.53;5032085;28;20032;-89
2023/01/08 02:01:42;;;;;;;4.30;1.88;;;;;;;7.96;100.00;100214.59;5032417;28;20036;-89
2023/01/08 02:04:25;;;;;;;3.13;1.90;;;;;;;7.89;100.00;100214.00;5032714;28;20036;-89
2023/01/08 02:07:07;;;;;;;5.18;1.70;;;;;;;7.71;100.00;100216.00;5044117;28;20029;-89
2023/01/08 02:09:40;;;;;;;3.78;1.50;;;;;;;7.56;100.00;100203.34;5032630;28;20030;-89
2023/01/08 02:12:43;;;;;;;4.47;1.30;;;;;;;7.54;100.00;100215.31;5039698;28;20495;-89
2023/01/08 02:15:23;;;;;;;9.90;1.40;;;;;;;7.44;100.00;100200.00;5032170;28;20037;-89
2023/01/08 02:17:58;;;;;;;2.37;0.97;;;;;;;7.37;100.00;100191.44;5033062;28;20029;-89
2023/01/08 02:20:29;;;;;;;4.87;1.10;;;;;;;7.24;100.00;100179.31;5047149;28;20296;-89
2023/01/08 02:23:22;;;;;;;3.03;0.80;;;;;;;7.20;100.00;100187.00;5039809;28;20376;-89
2023/01/08 02:26:11;;;;;;;2.88;0.70;;;;;;;7.12;100.00;100190.91;5013822;28;20028;-89
2023/01/08 02:28:42;;;;;;;2.20;1.20;;;;;;;7.06;100.00;100178.59;5038203;28;20104;-89
2023/01/08 02:31:09;;;;;;;4.72;0.90;;;;;;;6.80;100.00;100138.34;5048935;28;20415;-89
2023/01/08 02:33:40;;;;;;;3.63;0.90;;;;;;;6.85;100.00;100152.78;5051492;28;20429;-89
2023/01/08 02:36:11;;;;;;;5.83;0.80;;;;;;;6.91;100.00;100167.78;5050389;28;20315;-89
2023/01/08 02:38:50;;;;;;;4.13;0.60;;;;;;;6.91;100.00;100173.09;5031132;28;20040;-88
2023/01/08 02:41:18;;;;;;;6.05;0.90;;;;;;;6.63;100.00;100135.78;5031583;28;20467;-89
2023/01/08 02:43:50;;;;;;;5.32;1.15;;;;;;;6.63;100.00;100138.44;5030717;28;20047;-89
2023/01/08 02:46:21;;;;;;;3.47;1.00;;;;;;;6.73;100.00;100150.25;5038382;28;20036;-89
2023/01/08 02:49:01;;;;;;;4.50;0.80;;;;;;;6.66;100.00;100143.25;5045158;28;20032;-88
2023/01/08 02:51:34;;;;;;;3.70;0.60;;;;;;;6.73;100.00;100156.38;5030972;28;20299;-88
2023/01/08 02:54:08;;;;;;;4.80;0.80;;;;;;;6.81;100.00;100161.25;5046738;28;20695;-89
2023/01/08 02:56:39;;;;;;;2.47;0.68;;;;;;;6.67;100.00;100147.50;5031729;28;20477;-88
2023/01/08 02:59:06;;;;;;;3.63;0.52;;;;;;;6.69;100.00;100149.13;5030719;28;20037;-88
2023/01/08 03:01:33;;;;;;;4.43;0.70;;;;;;;6.67;100.00;100149.38;5031610;28;20116;-88
2023/01/08 03:04:07;;;;;;;5.53;0.80;;;;;;;6.73;100.00;100161.72;5031262;28;20108;-88
2023/01/08 03:06:33;;;;;;;3.20;0.60;;;;;;;6.63;100.00;100146.44;5015462;28;20397;-86
2023/01/08 03:08:59;;;;;;;4.43;0.80;;;;;;;6.68;100.00;100145.66;5051827;28;20049;-88
2023/01/08 03:11:33;;;;;;;7.07;0.80;;;;;;;6.62;100.00;100144.00;5074390;28;20024;-88
2023/01/08 03:14:30;;;;;;;5.78;0.80;;;;;;;6.61;100.00;100139.72;5040278;28;20009;-89
2023/01/08 03:17:05;;;;;;;4.78;1.02;;;;;;;6.60;100.00;100151.41;4996428;28;20107;-89
2023/01/08 03:19:47;;;;;;;5.50;0.50;;;;;;;6.60;100.00;100156.75;5050716;28;20037;-88
2023/01/08 03:22:16;;;;;;;4.70;0.60;;;;;;;6.45;100.00;100126.22;5044099;28;20881;-88
2023/01/08 03:24:44;;;;;;;5.47;0.70;;;;;;;6.45;100.00;100131.56;5033278;28;20053;-88
2023/01/08 03:27:15;;;;;;;8.55;0.65;;;;;;;6.55;100.00;100146.06;5033063;28;20037;-88
2023/01/08 03:29:42;;;;;;;6.30;0.60;;;;;;;6.44;100.00;100137.13;5050089;28;20036;-88
2023/01/08 03:32:14;;;;;;;4.25;0.50;;;;;;;6.51;100.00;100143.88;5061670;28;20241;-88
2023/01/08 03:34:42;;;;;;;4.40;0.83;;;;;;;6.45;100.00;100133.41;5051994;28;20032;-88
2023/01/08 03:37:12;;;;;;;8.80;0.83;;;;;;;6.47;100.00;100144.63;5052812;28;20295;-88
2023/01/08 03:39:51;;;;;;;3.17;0.50;;;;;;;6.38;100.00;100128.28;5053443;28;20081;-88
2023/01/08 03:42:20;;;;;;;5.97;1.13;;;;;;;6.35;100.00;100115.47;5052728;28;20024;-88
2023/01/08 03:44:46;;;;;;;5.07;0.75;;;;;;;6.31;100.00;100101.03;5066708;28;20024;-89
2023/01/08 03:47:13;;;;;;;6.10;0.87;;;;;;;6.23;100.00;100088.97;5053516;28;20647;-90
2023/01/08 03:49:41;;;;;;;4.30;0.60;;;;;;;6.42;100.00;100113.41;5052732;28;20021;-90
2023/01/08 03:52:40;;;;;;;9.02;1.02;;;;;;;6.54;100.00;100136.47;5032504;28;20029;-88
2023/01/08 03:55:05;;;;;;;5.35;1.17;;;;;;;6.25;100.00;100094.03;5033522;28;20524;-87
2023/01/08 03:57:33;;;;;;;5.40;0.60;;;;;;;6.50;100.00;100118.31;5031202;28;20048;-88
2023/01/08 03:59:59;;;;;;;6.90;0.80;;;;;;;6.56;100.00;100119.16;5032930;28;20610;-89
2023/01/08 04:02:24;;;;;;;9.20;0.90;;;;;;;6.57;100.00;100120.00;5018927;28;20025;-88
2023/01/08 04:04:49;;;;;;;5.72;0.60;;;;;;;6.43;100.00;100093.72;5036723;28;20087;-88
2023/01/08 04:07:16;;;;;;;4.20;0.53;;;;;;;6.60;100.00;100119.47;5043850;28;20041;-89
2023/01/08 04:09:41;;;;;;;4.85;0.60;;;;;;;6.44;100.00;100094.53;5038800;28;20550;-88
2023/01/08 04:12:13;;;;;;;5.37;0.87;;;;;;;6.47;100.00;100094.84;5036531;28;20022;-88
2023/01/08 04:14:38;;;;;;;4.85;0.65;;;;;;;6.53;100.00;100094.91;5046056;28;20108;-88
2023/01/08 04:17:22;;;;;;;4.67;0.83;;;;;;;6.40;100.00;100078.25;5052967;28;20143;-88
2023/01/08 04:19:47;;;;;;;2.17;0.70;;;;;;;6.47;100.00;100089.53;5031251;28;20099;-88
2023/01/08 04:41:08;;;;;;;7.75;1.33;;;;;;;6.34;100.00;100050.78;5835647;22;20045;-89
2023/01/08 04:46:17;;;;;;;4.43;1.23;;;;;;;6.34;100.00;100053.44;5036222;28;20456;-89
2023/01/08 04:48:43;;;;;;;4.53;1.30;;;;;;;6.59;100.00;100088.56;5035431;28;20073;-88
2023/01/08 04:51:08;;;;;;;4.30;1.27;;;;;;;6.47;100.00;100070.91;5049837;28;20021;-88
2023/01/08 04:53:45;;;;;;;4.80;1.58;;;;;;;6.55;100.00;100084.81;5028147;28;20056;-88
2023/01/08 04:56:16;;;;;;;4.10;1.48;;;;;;;6.27;100.00;100063.47;5041203;28;20029;-88
2023/01/08 04:58:55;;;;;;;2.33;0.93;;;;;;;6.54;100.00;100107.97;5049242;28;20056;-88
2023/01/08 05:01:22;;;;;;;4.50;0.90;;;;;;;6.51;100.00;100101.28;5023245;28;20033;-88
2023/01/08 05:03:53;;;;;;;2.05;0.80;;;;;;;6.51;100.00;100095.97;5035899;28;20021;-88
2023/01/08 05:06:18;;;;;;;4.88;0.70;;;;;;;6.44;100.00;100081.25;5033457;28;20075;-88
2023/01/08 05:08:44;;;;;;;2.63;0.60;;;;;;;6.41;100.00;100079.06;5033269;28;20037;-88
2023/01/08 05:11:09;;;;;;;6.18;0.70;;;;;;;6.41;100.00;100084.38;5039359;28;20051;-88
2023/01/08 05:13:35;;;;;;;4.03;0.77;;;;;;;6.34;100.00;100082.72;5032809;28;20037;-88
2023/01/08 05:16:00;;;;;;;5.83;0.93;;;;;;;6.26;100.00;100069.84;5033982;28;20447;-88
2023/01/08 05:18:27;;;;;;;2.95;0.60;;;;;;;6.18;100.00;100051.66;5023432;28;20116;-88
2023/01/08 05:20:53;;;;;;;4.30;0.82;;;;;;;6.19;100.00;100066.56;5032070;28;20028;-88
2023/01/08 05:23:18;;;;;;;3.50;0.90;;;;;;;6.15;100.00;100057.47;5020613;28;20029;-88
2023/01/08 05:25:43;;;;;;;6.60;0.80;;;;;;;6.32;100.00;100081.34;5031422;28;20033;-88
2023/01/08 05:28:14;;;;;;;3.60;0.90;;;;;;;6.15;100.00;100060.94;5031837;28;20060;-88
2023/01/08 05:30:40;;;;;;;4.50;0.97;;;;;;;6.19;100.00;100051.41;5033308;28;20025;-88
2023/01/08 05:33:05;;;;;;;2.95;0.80;;;;;;;6.36;100.00;100071.84;5021306;28;20024;-88
2023/01/08 05:35:30;;;;;;;4.77;1.33;;;;;;;6.47;100.00;100078.88;5020276;28;20032;-87
2023/01/08 05:37:58;;;;;;;2.73;1.53;;;;;;;6.34;100.00;100052.66;5043996;28;20056;-87
2023/01/08 05:40:24;;;;;;;3.70;1.10;;;;;;;6.47;100.00;100060.25;5032593;28;20053;-88
2023/01/08 05:42:49;;;;;;;2.73;0.93;;;;;;;6.38;100.00;100039.66;5032962;28;20049;-88
2023/01/08 05:45:15;;;;;;;3.67;1.00;;;;;;;6.19;100.00;100030.13;5046945;28;20024;-87
2023/01/08 05:47:41;;;;;;;4.40;0.75;;;;;;;6.09;100.00;100022.00;5039855;28;20021;-87
2023/01/08 05:50:07;;;;;;;4.03;1.17;;;;;;;6.02;100.00;100030.19;5033612;28;20515;-86
2023/01/08 05:52:35;;;;;;;3.20;0.87;;;;;;;5.87;100.00;100020.13;5038611;28;20029;-87
2023/01/08 05:55:00;;;;;;;5.67;1.00;;;;;;;5.76;100.00;100031.69;5062492;28;20283;-87
2023/01/08 05:57:26;;;;;;;3.20;0.60;;;;;;;5.68;100.00;100027.59;5037639;28;20021;-90
2023/01/08 06:02:19;;;;;;;1.90;0.63;;;;;;;5.69;100.00;100069.06;5104593;22;20053;-89
2023/01/08 06:04:45;;;;;;;9.47;1.00;;;;;;;5.56;100.00;100075.50;5055336;28;20400;-90
2023/01/08 06:07:11;;;;;;;5.03;0.63;;;;;;;5.28;100.00;100037.38;5053588;28;20766;-89
2023/01/08 06:16:03;;;;;;;4.50;0.80;;;;;;;5.14;100.00;100073.25;5026901;28;20032;-91
2023/01/08 06:18:34;;;;;;;7.03;0.80;;;;;;;4.90;100.00;100064.59;5051667;28;20388;-92
2023/01/08 06:24:05;;;;;;;6.10;0.80;;;;;;;5.02;100.00;100101.72;4970413;28;20045;-91
2023/01/08 06:26:48;;;;;;;4.70;1.23;;;;;;;4.91;100.00;100084.78;5018781;28;20037;-91
2023/01/08 06:29:16;;;;;;;5.18;1.20;;;;;;;4.67;100.00;100050.38;5008562;28;20047;-90
2023/01/08 06:32:10;;;;;;;3.60;0.75;;;;;;;4.79;100.00;100066.25;5050904;28;20078;-91
2023/01/08 06:34:35;;;;;;;5.10;0.68;;;;;;;4.85;100.00;100099.81;5052032;28;20652;-91
2023/01/08 06:37:16;;;;;;;5.67;0.80;;;;;;;4.77;100.00;100092.22;5031182;28;20027;-92
2023/01/08 06:39:51;;;;;;;;;;;;;;;;;;;;;
2023/01/08 06:42:17;;;;;;;7.70;0.95;;;;;;;4.57;100.00;100082.03;5048260;28;20041;-93
2023/01/08 06:44:43;;;;;;;8.83;0.70;;;;;;;4.51;100.00;100081.16;5032719;28;20036;-94
2023/01/08 06:47:42;;;;;;;10.15;0.70;;;;;;;4.74;100.00;100116.63;5050741;28;20488;-92
2023/01/08 06:50:08;;;;;;;9.48;1.00;;;;;;;4.62;100.00;100106.81;5027153;28;20025;-91
2023/01/08 06:52:39;;;;;;;8.37;0.80;;;;;;;4.52;100.00;100103.97;5038341;28;20026;-92
2023/01/08 06:55:05;;;;;;;5.47;0.70;;;;;;;4.42;100.00;100095.81;5054994;28;20021;-92
2023/01/08 06:57:42;;;;;;;;;;;;;;;;;;;;;
2023/01/08 07:00:11;;;;;;;6.10;0.98;;;;;;;4.48;100.00;100116.09;5048177;28;20040;-93
2023/01/08 07:02:42;;;;;;;7.57;0.95;;;;;;;4.29;100.00;100073.03;5048471;28;20033;-93
2023/01/08 07:05:14;;;;;;;7.23;0.67;;;;;;;4.53;100.00;100106.38;5025681;28;20053;-92
2023/01/08 07:07:48;;;;;;;6.60;0.77;;;;;;;4.74;100.00;100119.28;5035228;28;20306;-92
2023/01/08 07:10:55;;;;;;;8.38;1.17;;;;;;;4.78;100.00;100115.91;5051749;28;20120;-93
2023/01/08 07:13:33;;;;;;;7.85;1.10;;;;;;;4.77;100.00;100098.34;5051649;28;20025;-93
2023/01/08 07:16:06;;;;;;;7.07;0.95;;;;;;;4.89;100.00;100097.50;5052947;28;20057;-92
2023/01/08 07:18:53;;;;;;;9.07;0.98;;;;;;;5.05;100.00;100122.50;5051057;28;20474;-93
2023/01/08 07:21:19;;;;;;;6.15;0.82;;;;;;;4.79;100.00;100076.88;5050082;28;20065;-91
2023/01/08 07:23:47;;;;;;;11.38;1.20;;;;;;;4.91;100.00;100084.78;5030716;28;20174;-93
2023/01/08 07:26:33;;;;;;;8.30;1.30;;;;;;;5.08;100.00;100106.09;5051911;28;20020;-92
2023/01/08 07:28:58;;;;;;;12.23;1.52;;;;;;;4.92;100.00;100087.22;5050723;28;20503;-93
2023/01/08 07:31:27;;;;;;;6.72;1.15;;;;;;;5.04;100.00;100096.97;5052138;28;20029;-92
2023/01/08 07:34:07;;;;;;;6.43;0.97;;;;;;;5.15;100.00;100117.34;5033857;28;20021;-93
2023/01/08 07:39:45;;;;;;;11.98;0.93;;;;;;;4.93;100.00;100080.84;5017990;28;20048;-92
2023/01/08 07:42:11;;;;;;;6.00;0.80;;;;;;;4.90;100.00;100085.84;5047505;28;20407;-93
2023/01/08 08:01:32;;;;;;;12.65;1.20;;;;;;;4.46;100.00;100087.16;5018281;28;20188;-94
2023/01/08 08:04:06;;;;;;;6.88;2.13;;;;;;;4.57;100.00;100096.09;5010906;28;20404;-91
2023/01/08 08:06:32;;;;;;;11.25;2.10;;;;;;;4.57;100.00;100077.53;5029943;28;20037;-92
2023/01/08 08:08:58;;;;;;;4.93;1.60;;;;;;;4.73;100.00;100110.50;5011648;28;20038;-93
2023/01/08 08:12:06;;;;;;;;;;;;;;;;;;;;;
2023/01/08 08:15:23;;;;;;;7.23;1.47;;;;;;;4.49;100.00;100043.44;4905160;29;20573;-92
2023/01/08 08:17:48;;;;;;;8.30;1.17;;;;;;;4.98;100.00;100080.94;4988897;28;20665;-93
2023/01/08 08:20:26;;;;;;;5.90;0.77;;;;;;;4.85;100.00;100033.47;5029708;28;20029;-93
2023/01/08 08:23:01;;;;;;;6.55;0.70;;;;;;;4.96;100.00;100039.75;5007507;28;20026;-92
2023/01/08 08:25:30;;;;;;;5.75;0.82;;;;;;;5.05;100.00;100024.22;5007728;28;20068;-92
2023/01/08 08:27:59;;;;;;;8.27;1.00;;;;;;;5.29;100.00;100052.25;5006535;28;20048;-92
2023/01/08 08:30:47;;;;;;;10.37;1.50;;;;;;;5.49;100.00;100053.59;5023584;28;20048;-92
2023/01/08 08:33:12;;;;;;;3.83;0.77;;;;;;;5.65;100.00;100051.19;5037543;28;20017;-91
2023/01/08 08:35:39;;;;;;;5.07;0.90;;;;;;;5.73;100.00;100048.09;5020136;28;20079;-90
2023/01/08 08:38:07;;;;;;;9.10;1.10;;;;;;;5.85;100.00;100072.72;5043556;28;20029;-91
2023/01/08 08:40:32;;;;;;;10.53;2.03;;;;;;;5.71;100.00;100044.88;5051616;28;20037;-89
2023/01/08 08:42:59;;;;;;;6.50;1.73;;;;;;;5.83;100.00;100069.53;5052906;28;20056;-89
2023/01/08 08:45:26;;;;;;;9.50;1.53;;;;;;;5.66;100.00;100044.84;5032262;28;20033;-89
2023/01/08 08:47:51;;;;;;;9.50;1.10;;;;;;;5.77;100.00;100073.16;5030671;28;20300;-90
2023/01/08 08:50:19;;;;;;;8.00;0.73;;;;;;;5.73;100.00;100072.03;5010997;28;20037;-91
2023/01/08 08:52:45;;;;;;;12.60;1.37;;;;;;;5.43;100.00;100022.72;5013561;28;20030;-90
2023/01/08 08:55:16;;;;;;;11.85;1.55;;;;;;;5.52;100.00;100039.84;5028222;28;20380;-89
2023/01/08 08:57:45;;;;;;;8.38;1.15;;;;;;;5.63;100.00;100054.09;5010022;28;20697;-89
2023/01/08 09:00:12;;;;;;;9.85;1.27;;;;;;;5.55;100.00;100047.31;5034627;28;20045;-90
2023/01/08 09:02:38;;;;;;;4.70;0.85;;;;;;;5.57;100.00;100058.53;5055325;28;20137;-89
2023/01/08 09:05:04;;;;;;;8.70;1.30;;;;;;;5.49;100.00;100039.53;5054301;28;20046;-89
2023/01/08 09:07:29;;;;;;;8.68;1.23;;;;;;;5.51;100.00;100053.38;5053493;28;20025;-89
2023/01/08 09:09:55;;;;;;;5.30;0.90;;;;;;;5.44;100.00;100056.19;5052531;28;20117;-90
2023/01/08 09:12:21;;;;;;;7.18;1.13;;;;;;;5.32;100.00;100032.38;5033328;28;20060;-89
2023/01/08 09:14:48;;;;;;;8.17;1.30;;;;;;;5.34;100.00;100035.59;5033795;28;20034;-90
2023/01/08 09:17:14;;;;;;;7.38;1.50;;;;;;;5.37;100.00;100039.59;5033633;28;20032;-91
2023/01/08 09:19:39;;;;;;;8.40;2.10;;;;;;;5.24;100.00;100035.41;5032995;28;20026;-90
2023/01/08 09:22:05;;;;;;;6.80;1.10;;;;;;;5.34;100.00;100040.91;5032946;28;20049;-90
2023/01/08 09:24:31;;;;;;;12.88;1.77;;;;;;;5.27;100.00;100030.44;5031065;28;20132;-90
2023/01/08 09:26:57;;;;;;;8.18;1.25;;;;;;;5.35;100.00;100045.19;5015839;28;20057;-90
2023/01/08 09:29:23;;;;;;;8.82;1.80;;;;;;;5.30;100.00;100040.56;5015827;28;20021;-89
2023/01/08 09:31:48;;;;;;;15.70;4.43;;;;;;;5.16;100.00;100020.69;5033442;28;20036;-90
2023/01/08 09:34:13;;;;;;;8.00;1.57;;;;;;;5.25;100.00;100035.19;5033612;28;20673;-90
2023/01/08 09:36:39;;;;;;;27.73;7.53;;;;;;;5.19;100.00;100016.75;5034445;28;20018;-90
2023/01/08 09:39:04;;;;;;;14.77;3.03;;;;;;;5.25;100.00;100037.84;5033403;28;20120;-90
2023/01/08 09:41:34;;;;;;;20.73;5.57;;;;;;;5.23;100.00;100034.63;5036862;28;20052;-90
2023/01/08 09:44:03;;;;;;;53.50;17.50;;;;;;;5.22;100.00;100025.03;5019510;28;20064;-89
2023/01/08 09:46:29;;;;;;;20.37;4.83;;;;;;;5.22;100.00;100011.75;5036230;28;20283;-89
2023/01/08 09:48:59;;;;;;;11.50;2.53;;;;;;;5.31;100.00;100026.25;5035946;28;20022;-90
2023/01/08 09:51:34;;;;;;;14.68;3.03;;;;;;;5.40;100.00;100023.19;5037335;28;20496;-89
2023/01/08 09:54:00;;;;;;;12.30;1.80;;;;;;;5.39;100.00;100010.94;5034733;28;20037;-89
2023/01/08 09:56:26;;;;;;;11.07;1.90;;;;;;;5.44;100.00;100019.78;5013078;28;20021;-89
2023/01/08 09:58:57;;;;;;;12.33;1.73;;;;;;;5.47;100.00;100013.22;5033552;28;20026;-90
2023/01/08 10:01:26;;;;;;;13.93;2.03;;;;;;;5.51;100.00;100013.50;5033161;28;20496;-90
2023/01/08 10:04:13;;;;;;;11.18;1.30;;;;;;;5.56;100.00;100017.03;5015406;28;20013;-89
2023/01/08 10:06:54;;;;;;;6.93;1.10;;;;;;;5.55;100.00;100018.09;5015216;28;20082;-90
2023/01/08 10:09:26;;;;;;;8.80;1.37;;;;;;;5.42;100.00;99999.84;5032020;28;20084;-90
2023/01/08 10:11:53;;;;;;;8.03;1.30;;;;;;;5.55;100.00;100009.31;5013307;28;20296;-90
2023/01/08 10:14:27;;;;;;;8.15;1.63;;;;;;;5.64;100.00;100007.06;5032619;28;20075;-90
2023/01/08 10:17:00;;;;;;;9.02;1.27;;;;;;;5.75;100.00;99998.94;5032444;28;20496;-90
2023/01/08 10:19:25;;;;;;;11.18;1.77;;;;;;;5.94;100.00;100008.50;5031789;28;20497;-90
2023/01/08 10:21:51;;;;;;;6.70;1.53;;;;;;;5.96;100.00;99998.44;5032913;28;20060;-90
2023/01/08 10:24:29;;;;;;;9.82;1.38;;;;;;;6.07;100.00;99997.53;5032078;28;20030;-90
2023/01/08 10:27:08;;;;;;;7.68;1.40;;;;;;;6.18;100.00;99990.47;5031901;28;20029;-89
2023/01/08 10:29:35;;;;;;;8.80;1.40;;;;;;;6.25;100.00;100007.06;5032115;28;20018;-90
2023/01/08 10:32:09;;;;;;;5.38;0.85;;;;;;;6.31;100.00;99990.06;5014408;28;20112;-90
2023/01/08 10:34:42;;;;;;;5.10;0.90;;;;;;;6.31;100.00;99987.41;5014111;28;20053;-91
2023/01/08 10:37:28;;;;;;;4.22;0.80;;;;;;;6.34;100.00;99988.78;5031634;28;20393;-90
2023/01/08 10:40:00;;;;;;;5.10;0.77;;;;;;;6.17;100.00;99981.69;5039049;28;20447;-90
2023/01/08 10:42:25;;;;;;;4.78;0.80;;;;;;;6.22;100.00;99986.25;5049803;28;20025;-89
2023/01/08 10:44:58;;;;;;;7.63;2.43;;;;;;;6.20;100.00;99986.53;5014051;28;20476;-90
2023/01/08 10:47:26;;;;;;;5.78;1.52;;;;;;;6.21;100.00;99979.31;5031558;28;20538;-91
2023/01/08 10:49:52;;;;;;;5.15;0.70;;;;;;;6.16;100.00;99966.78;5037077;28;20109;-90
2023/01/08 10:52:22;;;;;;;4.60;0.65;;;;;;;6.20;100.00;99956.44;5032244;28;20056;-90
2023/01/08 10:54:48;;;;;;;3.80;0.70;;;;;;;6.41;100.00;99967.28;5033569;28;20036;-90
2023/01/08 10:57:27;;;;;;;4.37;1.00;;;;;;;6.52;100.00;99958.34;5033299;28;20463;-90
2023/01/08 10:59:54;;;;;;;1.98;0.80;;;;;;;6.61;100.00;99950.72;5033629;28;20033;-90
2023/01/08 11:02:34;;;;;;;5.88;1.52;;;;;;;6.75;100.00;99961.75;5033544;28;20018;-90
2023/01/08 11:05:00;;;;;;;1.77;0.67;;;;;;;6.81;100.00;99950.88;5036895;28;20462;-90
2023/01/08 11:07:27;;;;;;;4.97;0.80;;;;;;;6.89;100.00;99935.50;5033583;28;20300;-86
2023/01/08 11:09:54;;;;;;;2.30;0.77;;;;;;;6.85;100.00;99932.53;5033445;28;20064;-89
2023/01/08 11:12:37;;;;;;;3.28;0.65;;;;;;;6.98;100.00;99936.63;5033740;28;20124;-87
2023/01/08 11:20:29;;;;;;;1.48;0.30;;;;;;;7.06;100.00;99919.38;5687934;23;20069;-88
2023/01/08 11:23:27;;;;;;;1.17;0.50;;;;;;;7.02;100.00;99902.31;5024913;28;20434;-89
2023/01/08 11:26:15;;;;;;;1.38;0.75;;;;;;;7.12;100.00;99902.38;4985316;28;20265;-87
2023/01/08 11:29:19;;;;;;;2.42;0.80;;;;;;;7.30;100.00;99908.31;4999329;28;20022;-88
2023/01/08 11:31:48;;;;;;;1.70;0.63;;;;;;;7.35;100.00;99911.81;4993124;28;20941;-89
2023/01/08 11:34:47;;;;;;;2.53;0.77;;;;;;;7.40;100.00;99911.84;4983834;28;20033;-91
2023/01/08 11:37:19;;;;;;;20.92;7.50;;;;;;;7.51;100.00;99917.22;4973548;28;20023;-92
2023/01/08 11:39:45;;;;;;;10.82;3.30;;;;;;;7.60;100.00;99917.53;4989066;28;20045;-92
2023/01/08 11:42:28;;;;;;;14.03;5.00;;;;;;;7.68;100.00;99909.81;4990198;28;20033;-92
2023/01/08 11:45:25;;;;;;;5.13;1.30;;;;;;;7.64;100.00;99890.09;4991714;28;20049;-91
2023/01/08 11:48:17;;;;;;;2.67;0.80;;;;;;;7.79;100.00;99893.88;4970247;28;20398;-92
2023/01/08 11:51:07;;;;;;;2.53;1.03;;;;;;;7.70;100.00;99888.25;4988289;28;20385;-91
2023/01/08 11:53:41;;;;;;;3.53;0.87;;;;;;;7.77;100.00;99902.13;4981776;28;20336;-91
2023/01/08 11:56:18;;;;;;;2.65;1.10;;;;;;;7.85;100.00;99898.19;4990531;28;20104;-88
2023/01/08 11:58:51;;;;;;;1.75;0.68;;;;;;;7.87;100.00;99885.34;4990654;28;20051;-90
2023/01/08 12:01:25;;;;;;;3.13;0.60;;;;;;;7.92;100.00;99890.72;4974421;28;20034;-89
2023/01/08 12:04:02;;;;;;;2.80;0.90;;;;;;;7.85;100.00;99892.84;4987295;28;20019;-90
2023/01/08 12:07:00;;;;;;;2.20;0.82;;;;;;;7.84;100.00;99888.56;4989596;28;20175;-90
2023/01/08 12:09:45;;;;;;;1.50;0.60;;;;;;;7.80;100.00;99884.81;4978013;28;20053;-89
2023/01/08 12:12:45;;;;;;;3.55;0.60;;;;;;;7.88;100.00;99881.63;4988637;28;20039;-89
2023/01/08 12:15:35;;;;;;;1.40;0.57;;;;;;;7.78;100.00;99863.72;4967486;28;20066;-88
2023/01/08 12:18:16;;;;;;;3.38;1.00;;;;;;;8.00;100.00;99884.06;4989934;28;20050;-90
2023/01/08 12:21:05;;;;;;;3.92;0.63;;;;;;;8.11;100.00;99879.56;4990167;28;20042;-90
2023/01/08 12:23:44;;;;;;;3.40;0.50;;;;;;;8.11;100.00;99875.03;4989116;28;20533;-89
2023/01/08 12:26:57;;;;;;;2.77;0.93;;;;;;;8.25;100.00;99869.16;4990382;28;20101;-92
2023/01/08 12:30:01;;;;;;;3.50;1.10;;;;;;;8.46;100.00;99868.13;4990978;28;20336;-89
2023/01/08 12:32:50;;;;;;;5.90;0.90;;;;;;;8.62;100.00;99865.47;4989843;28;20034;-88
2023/01/08 12:35:24;;;;;;;3.05;0.90;;;;;;;8.72;100.00;99872.69;4991854;28;20042;-90
2023/01/08 12:38:02;;;;;;;2.00;0.70;;;;;;;8.82;100.00;99871.88;4975083;28;20483;-91
2023/01/08 12:40:44;;;;;;;4.00;0.70;;;;;;;8.92;100.00;99867.31;4975348;28;20023;-89
2023/01/08 12:43:40;;;;;;;3.65;0.60;;;;;;;8.92;100.00;99864.63;4984138;28;20678;-88
2023/01/08 12:46:06;;;;;;;5.43;0.70;;;;;;;8.93;100.00;99871.59;4989048;28;20066;-88
2023/01/08 12:48:36;;;;;;;7.00;1.17;;;;;;;8.86;99.92;99855.03;4993173;28;20324;-88
2023/01/08 12:51:20;;;;;;;4.22;1.02;;;;;;;8.85;100.00;99852.63;4994187;28;20441;-88
2023/01/08 12:54:00;;;;;;;3.53;0.60;;;;;;;8.67;100.00;99835.28;4992884;28;20056;-88
2023/01/08 12:56:45;;;;;;;3.35;0.73;;;;;;;8.66;100.00;99849.69;4993211;28;20114;-88
2023/01/08 12:59:35;;;;;;;5.30;0.80;;;;;;;8.69;100.00;99838.50;4994037;28;20045;-89
2023/01/08 13:02:31;;;;;;;7.13;0.70;;;;;;;8.61;100.00;99850.50;4994572;28;20026;-88
2023/01/08 13:04:57;;;;;;;3.57;0.67;;;;;;;8.56;100.00;99829.97;4994216;28;20046;-88
2023/01/08 13:07:37;;;;;;;4.70;0.83;;;;;;;8.54;100.00;99836.63;4993693;28;20498;-89
2023/01/08 13:10:07;;;;;;;8.00;0.80;;;;;;;8.49;100.00;99838.22;4993217;28;20037;-87
2023/01/08 13:12:42;;;;;;;4.73;0.70;;;;;;;8.51;99.54;99842.50;4976718;28;20026;-89
2023/01/08 13:15:18;;;;;;;5.03;0.90;;;;;;;8.46;99.33;99832.59;4993738;28;20022;-90
2023/01/08 13:17:49;;;;;;;4.38;0.68;;;;;;;8.49;98.85;99813.41;4974229;28;20035;-90
2023/01/08 13:20:29;;;;;;;3.65;0.70;;;;;;;8.48;99.21;99817.16;4974493;28;20038;-91
2023/01/08 13:23:00;;;;;;;3.25;0.82;;;;;;;8.42;100.00;99810.16;4983942;28;20085;-90
2023/01/08 13:25:27;;;;;;;4.80;0.73;;;;;;;8.40;99.32;99807.00;4991774;28;20492;-92
2023/01/08 13:27:52;;;;;;;5.03;1.03;;;;;;;8.40;99.64;99802.44;4990516;28;20371;-90